sensor_id;sensor_type;location;lat;lon;timestamp;P1;durP1;ratioP1;P2;durP2;ratioP2
21661;SDS011;10992;48.170;8.596;2024-02-23T00:01:20;4.13;;;0.70;;
21661;SDS011;10992;48.170;8.596;2024-02-23T00:03:47;0.55;;;0.55;;
21661;SDS011;10992;48.170;8.596;2024-02-23T00:06:13;1.27;;;0.40;;
21661;SDS011;10992;48.170;8.596;2024-02-23T00:08:41;1.52;;;0.50;;
21661;SDS011;10992;48.170;8.596;2024-02-23T00:11:08;0.40;;;0.40;;
21661;SDS011;10992;48.170;8.596;2024-02-23T00:13:35;0.35;;;0.35;;
21661;SDS011;10992;48.170;8.596;2024-02-23T00:16:02;0.40;;;0.40;;
21661;SDS011;10992;48.170;8.596;2024-02-23T00:18:29;0.47;;;0.40;;
21661;SDS011;10992;48.170;8.596;2024-02-23T00:20:56;1.17;;;0.40;;
21661;SDS011;10992;48.170;8.596;2024-02-23T00:23:23;0.40;;;0.40;;
21661;SDS011;10992;48.170;8.596;2024-02-23T00:25:50;0.30;;;0.30;;
21661;SDS011;10992;48.170;8.596;2024-02-23T00:28:17;0.30;;;0.30;;
21661;SDS011;10992;48.170;8.596;2024-02-23T00:30:43;0.35;;;0.35;;
21661;SDS011;10992;48.170;8.596;2024-02-23T00:33:11;0.30;;;0.30;;
21661;SDS011;10992;48.170;8.596;2024-02-23T00:35:38;0.30;;;0.30;;
21661;SDS011;10992;48.170;8.596;2024-02-23T00:38:04;0.30;;;0.30;;
21661;SDS011;10992;48.170;8.596;2024-02-23T00:40:31;0.30;;;0.30;;
21661;SDS011;10992;48.170;8.596;2024-02-23T00:42:58;0.30;;;0.30;;
21661;SDS011;10992;48.170;8.596;2024-02-23T00:45:26;0.30;;;0.30;;
21661;SDS011;10992;48.170;8.596;2024-02-23T00:47:53;0.20;;;0.20;;
21661;SDS011;10992;48.170;8.596;2024-02-23T00:50:20;0.30;;;0.30;;
21661;SDS011;10992;48.170;8.596;2024-02-23T00:52:47;0.40;;;0.40;;
21661;SDS011;10992;48.170;8.596;2024-02-23T00:55:14;0.32;;;0.32;;
21661;SDS011;10992;48.170;8.596;2024-02-23T00:57:41;1.20;;;0.30;;
21661;SDS011;10992;48.170;8.596;2024-02-23T01:00:08;0.30;;;0.30;;
21661;SDS011;10992;48.170;8.596;2024-02-23T01:02:35;0.40;;;0.40;;
21661;SDS011;10992;48.170;8.596;2024-02-23T01:05:03;0.30;;;0.30;;
21661;SDS011;10992;48.170;8.596;2024-02-23T01:07:31;0.50;;;0.50;;
21661;SDS011;10992;48.170;8.596;2024-02-23T01:09:59;1.45;;;0.60;;
21661;SDS011;10992;48.170;8.596;2024-02-23T01:12:26;0.43;;;0.30;;
21661;SDS011;10992;48.170;8.596;2024-02-23T01:14:54;0.40;;;0.40;;
21661;SDS011;10992;48.170;8.596;2024-02-23T01:17:20;0.40;;;0.40;;
21661;SDS011;10992;48.170;8.596;2024-02-23T01:19:48;0.50;;;0.50;;
21661;SDS011;10992;48.170;8.596;2024-02-23T01:22:15;0.57;;;0.50;;
21661;SDS011;10992;48.170;8.596;2024-02-23T01:24:42;0.40;;;0.40;;
21661;SDS011;10992;48.170;8.596;2024-02-23T01:27:09;0.40;;;0.40;;
21661;SDS011;10992;48.170;8.596;2024-02-23T01:29:36;0.40;;;0.40;;
21661;SDS011;10992;48.170;8.596;2024-02-23T01:32:03;1.55;;;0.40;;
21661;SDS011;10992;48.170;8.596;2024-02-23T01:34:30;0.40;;;0.40;;
21661;SDS011;10992;48.170;8.596;2024-02-23T01:36:57;2.88;;;0.47;;
21661;SDS011;10992;48.170;8.596;2024-02-23T01:39:24;1.58;;;0.57;;
21661;SDS011;10992;48.170;8.596;2024-02-23T01:41:51;0.98;;;0.47;;
21661;SDS011;10992;48.170;8.596;2024-02-23T01:44:18;0.60;;;0.60;;
21661;SDS011;10992;48.170;8.596;2024-02-23T01:46:47;0.90;;;0.50;;
21661;SDS011;10992;48.170;8.596;2024-02-23T01:49:15;1.00;;;0.60;;
21661;SDS011;10992;48.170;8.596;2024-02-23T01:51:43;0.50;;;0.50;;
21661;SDS011;10992;48.170;8.596;2024-02-23T01:54:10;4.03;;;0.68;;
21661;SDS011;10992;48.170;8.596;2024-02-23T01:56:37;1.90;;;0.60;;
21661;SDS011;10992;48.170;8.596;2024-02-23T01:59:06;0.93;;;0.60;;
21661;SDS011;10992;48.170;8.596;2024-02-23T02:01:36;2.95;;;0.70;;
21661;SDS011;10992;48.170;8.596;2024-02-23T02:04:03;1.30;;;0.60;;
21661;SDS011;10992;48.170;8.596;2024-02-23T02:06:29;2.47;;;0.93;;
21661;SDS011;10992;48.170;8.596;2024-02-23T02:08:57;1.10;;;0.70;;
21661;SDS011;10992;48.170;8.596;2024-02-23T02:11:24;3.85;;;0.52;;
21661;SDS011;10992;48.170;8.596;2024-02-23T02:13:50;1.75;;;0.60;;
21661;SDS011;10992;48.170;8.596;2024-02-23T02:16:17;1.45;;;0.70;;
21661;SDS011;10992;48.170;8.596;2024-02-23T02:18:44;0.75;;;0.55;;
21661;SDS011;10992;48.170;8.596;2024-02-23T02:21:12;0.43;;;0.43;;
21661;SDS011;10992;48.170;8.596;2024-02-23T02:23:39;0.50;;;0.50;;
21661;SDS011;10992;48.170;8.596;2024-02-23T02:26:06;2.10;;;0.57;;
21661;SDS011;10992;48.170;8.596;2024-02-23T02:28:34;1.42;;;0.70;;
21661;SDS011;10992;48.170;8.596;2024-02-23T02:31:01;0.40;;;0.40;;
21661;SDS011;10992;48.170;8.596;2024-02-23T02:33:27;0.93;;;0.50;;
21661;SDS011;10992;48.170;8.596;2024-02-23T02:35:54;1.60;;;0.77;;
21661;SDS011;10992;48.170;8.596;2024-02-23T02:38:21;0.80;;;0.60;;
21661;SDS011;10992;48.170;8.596;2024-02-23T02:40:48;1.73;;;0.60;;
21661;SDS011;10992;48.170;8.596;2024-02-23T02:43:15;1.45;;;0.55;;
21661;SDS011;10992;48.170;8.596;2024-02-23T02:45:42;1.35;;;0.60;;
21661;SDS011;10992;48.170;8.596;2024-02-23T02:48:10;1.85;;;0.93;;
21661;SDS011;10992;48.170;8.596;2024-02-23T02:50:37;1.63;;;0.70;;
21661;SDS011;10992;48.170;8.596;2024-02-23T02:53:04;3.30;;;0.80;;
21661;SDS011;10992;48.170;8.596;2024-02-23T02:55:31;0.80;;;0.60;;
21661;SDS011;10992;48.170;8.596;2024-02-23T02:57:57;4.78;;;0.90;;
21661;SDS011;10992;48.170;8.596;2024-02-23T03:00:25;1.73;;;0.75;;
21661;SDS011;10992;48.170;8.596;2024-02-23T03:02:52;4.82;;;0.93;;
21661;SDS011;10992;48.170;8.596;2024-02-23T03:05:19;2.42;;;0.73;;
21661;SDS011;10992;48.170;8.596;2024-02-23T03:07:46;2.10;;;0.70;;
21661;SDS011;10992;48.170;8.596;2024-02-23T03:10:13;2.10;;;0.70;;
21661;SDS011;10992;48.170;8.596;2024-02-23T03:12:40;2.42;;;0.80;;
21661;SDS011;10992;48.170;8.596;2024-02-23T03:15:07;4.45;;;0.80;;
21661;SDS011;10992;48.170;8.596;2024-02-23T03:17:35;1.17;;;0.82;;
21661;SDS011;10992;48.170;8.596;2024-02-23T03:20:02;1.33;;;0.60;;
21661;SDS011;10992;48.170;8.596;2024-02-23T03:22:37;2.95;;;0.65;;
21661;SDS011;10992;48.170;8.596;2024-02-23T03:25:05;1.67;;;0.77;;
21661;SDS011;10992;48.170;8.596;2024-02-23T03:27:36;2.40;;;0.68;;
21661;SDS011;10992;48.170;8.596;2024-02-23T03:30:03;4.43;;;0.98;;
21661;SDS011;10992;48.170;8.596;2024-02-23T03:32:31;2.72;;;1.20;;
21661;SDS011;10992;48.170;8.596;2024-02-23T03:35:03;1.75;;;0.60;;
21661;SDS011;10992;48.170;8.596;2024-02-23T03:37:32;1.88;;;0.80;;
21661;SDS011;10992;48.170;8.596;2024-02-23T03:39:59;2.35;;;0.75;;
21661;SDS011;10992;48.170;8.596;2024-02-23T03:42:31;2.08;;;0.57;;
21661;SDS011;10992;48.170;8.596;2024-02-23T03:44:58;3.65;;;1.33;;
21661;SDS011;10992;48.170;8.596;2024-02-23T03:47:24;1.13;;;0.75;;
21661;SDS011;10992;48.170;8.596;2024-02-23T03:49:52;0.77;;;0.70;;
21661;SDS011;10992;48.170;8.596;2024-02-23T03:52:19;1.23;;;0.77;;
21661;SDS011;10992;48.170;8.596;2024-02-23T03:54:46;1.70;;;1.05;;
21661;SDS011;10992;48.170;8.596;2024-02-23T03:57:12;5.10;;;0.70;;
21661;SDS011;10992;48.170;8.596;2024-02-23T03:59:39;2.17;;;0.70;;
21661;SDS011;10992;48.170;8.596;2024-02-23T04:02:07;4.65;;;0.80;;
21661;SDS011;10992;48.170;8.596;2024-02-23T04:04:35;1.27;;;0.80;;
21661;SDS011;10992;48.170;8.596;2024-02-23T04:07:02;4.35;;;1.00;;
21661;SDS011;10992;48.170;8.596;2024-02-23T04:09:28;1.63;;;0.95;;
21661;SDS011;10992;48.170;8.596;2024-02-23T04:11:56;3.50;;;0.68;;
21661;SDS011;10992;48.170;8.596;2024-02-23T04:14:22;3.03;;;0.82;;
21661;SDS011;10992;48.170;8.596;2024-02-23T04:16:49;3.15;;;0.90;;
21661;SDS011;10992;48.170;8.596;2024-02-23T04:19:16;2.67;;;0.77;;
21661;SDS011;10992;48.170;8.596;2024-02-23T04:21:43;3.13;;;0.77;;
21661;SDS011;10992;48.170;8.596;2024-02-23T04:24:10;1.45;;;0.88;;
21661;SDS011;10992;48.170;8.596;2024-02-23T04:26:37;3.90;;;0.93;;
21661;SDS011;10992;48.170;8.596;2024-02-23T04:29:04;2.38;;;1.23;;
21661;SDS011;10992;48.170;8.596;2024-02-23T04:31:30;2.30;;;0.98;;
21661;SDS011;10992;48.170;8.596;2024-02-23T04:33:57;1.10;;;0.70;;
21661;SDS011;10992;48.170;8.596;2024-02-23T04:36:24;3.42;;;1.02;;
21661;SDS011;10992;48.170;8.596;2024-02-23T04:38:51;2.10;;;0.75;;
21661;SDS011;10992;48.170;8.596;2024-02-23T04:41:21;1.40;;;0.60;;
21661;SDS011;10992;48.170;8.596;2024-02-23T04:43:48;2.65;;;0.80;;
21661;SDS011;10992;48.170;8.596;2024-02-23T04:46:15;2.40;;;1.42;;
21661;SDS011;10992;48.170;8.596;2024-02-23T04:48:42;1.45;;;1.15;;
21661;SDS011;10992;48.170;8.596;2024-02-23T04:51:10;1.83;;;0.80;;
21661;SDS011;10992;48.170;8.596;2024-02-23T04:53:37;2.22;;;0.70;;
21661;SDS011;10992;48.170;8.596;2024-02-23T04:56:04;3.92;;;1.13;;
21661;SDS011;10992;48.170;8.596;2024-02-23T04:58:31;2.58;;;1.10;;
21661;SDS011;10992;48.170;8.596;2024-02-23T05:00:58;2.65;;;1.20;;
21661;SDS011;10992;48.170;8.596;2024-02-23T05:03:25;3.30;;;1.00;;
21661;SDS011;10992;48.170;8.596;2024-02-23T05:05:52;2.92;;;0.90;;
21661;SDS011;10992;48.170;8.596;2024-02-23T05:08:20;2.45;;;0.82;;
21661;SDS011;10992;48.170;8.596;2024-02-23T05:10:47;3.03;;;0.90;;
21661;SDS011;10992;48.170;8.596;2024-02-23T05:13:14;2.90;;;1.52;;
21661;SDS011;10992;48.170;8.596;2024-02-23T05:15:41;2.65;;;1.58;;
21661;SDS011;10992;48.170;8.596;2024-02-23T05:18:08;5.63;;;1.63;;
21661;SDS011;10992;48.170;8.596;2024-02-23T05:20:35;5.05;;;1.08;;
21661;SDS011;10992;48.170;8.596;2024-02-23T05:23:02;3.13;;;1.13;;
21661;SDS011;10992;48.170;8.596;2024-02-23T05:25:29;2.83;;;1.20;;
21661;SDS011;10992;48.170;8.596;2024-02-23T05:27:56;1.40;;;0.95;;
21661;SDS011;10992;48.170;8.596;2024-02-23T05:30:23;3.42;;;0.80;;
21661;SDS011;10992;48.170;8.596;2024-02-23T05:32:50;2.97;;;1.00;;
21661;SDS011;10992;48.170;8.596;2024-02-23T05:35:17;5.28;;;1.73;;
21661;SDS011;10992;48.170;8.596;2024-02-23T05:37:44;5.03;;;1.35;;
21661;SDS011;10992;48.170;8.596;2024-02-23T05:40:10;4.05;;;1.00;;
21661;SDS011;10992;48.170;8.596;2024-02-23T05:42:38;5.70;;;1.02;;
21661;SDS011;10992;48.170;8.596;2024-02-23T05:45:09;3.47;;;1.38;;
21661;SDS011;10992;48.170;8.596;2024-02-23T05:47:37;4.30;;;1.15;;
21661;SDS011;10992;48.170;8.596;2024-02-23T05:50:09;2.08;;;1.40;;
21661;SDS011;10992;48.170;8.596;2024-02-23T05:52:36;2.95;;;0.93;;
21661;SDS011;10992;48.170;8.596;2024-02-23T05:55:03;4.07;;;0.90;;
21661;SDS011;10992;48.170;8.596;2024-02-23T05:57:30;2.83;;;1.15;;
21661;SDS011;10992;48.170;8.596;2024-02-23T05:59:57;5.28;;;1.10;;
21661;SDS011;10992;48.170;8.596;2024-02-23T06:02:24;3.22;;;1.52;;
21661;SDS011;10992;48.170;8.596;2024-02-23T06:04:51;4.63;;;1.10;;
21661;SDS011;10992;48.170;8.596;2024-02-23T06:07:18;3.78;;;1.10;;
21661;SDS011;10992;48.170;8.596;2024-02-23T06:09:48;2.38;;;1.20;;
21661;SDS011;10992;48.170;8.596;2024-02-23T06:12:14;6.28;;;1.25;;
21661;SDS011;10992;48.170;8.596;2024-02-23T06:14:42;4.88;;;1.40;;
21661;SDS011;10992;48.170;8.596;2024-02-23T06:17:08;2.60;;;1.40;;
21661;SDS011;10992;48.170;8.596;2024-02-23T06:19:35;2.58;;;0.98;;
21661;SDS011;10992;48.170;8.596;2024-02-23T06:22:02;2.50;;;1.63;;
21661;SDS011;10992;48.170;8.596;2024-02-23T06:24:29;5.55;;;1.60;;
21661;SDS011;10992;48.170;8.596;2024-02-23T06:26:56;3.22;;;1.15;;
21661;SDS011;10992;48.170;8.596;2024-02-23T06:29:24;2.90;;;0.90;;
21661;SDS011;10992;48.170;8.596;2024-02-23T06:31:51;5.20;;;1.30;;
21661;SDS011;10992;48.170;8.596;2024-02-23T06:34:17;4.88;;;1.23;;
21661;SDS011;10992;48.170;8.596;2024-02-23T06:36:45;3.35;;;1.13;;
21661;SDS011;10992;48.170;8.596;2024-02-23T06:39:11;4.13;;;1.20;;
21661;SDS011;10992;48.170;8.596;2024-02-23T06:41:38;3.67;;;1.30;;
21661;SDS011;10992;48.170;8.596;2024-02-23T06:44:05;4.18;;;1.58;;
21661;SDS011;10992;48.170;8.596;2024-02-23T06:46:32;8.27;;;2.10;;
21661;SDS011;10992;48.170;8.596;2024-02-23T06:48:59;4.90;;;1.48;;
21661;SDS011;10992;48.170;8.596;2024-02-23T06:51:26;4.88;;;2.13;;
21661;SDS011;10992;48.170;8.596;2024-02-23T06:53:53;7.03;;;2.65;;
21661;SDS011;10992;48.170;8.596;2024-02-23T06:56:20;5.75;;;1.70;;
21661;SDS011;10992;48.170;8.596;2024-02-23T06:58:47;8.52;;;1.90;;
21661;SDS011;10992;48.170;8.596;2024-02-23T07:01:13;3.38;;;1.15;;
21661;SDS011;10992;48.170;8.596;2024-02-23T07:03:40;3.45;;;1.23;;
21661;SDS011;10992;48.170;8.596;2024-02-23T07:06:09;4.32;;;1.10;;
21661;SDS011;10992;48.170;8.596;2024-02-23T07:08:37;3.40;;;0.95;;
21661;SDS011;10992;48.170;8.596;2024-02-23T07:11:04;3.17;;;1.10;;
21661;SDS011;10992;48.170;8.596;2024-02-23T07:13:31;1.88;;;1.10;;
21661;SDS011;10992;48.170;8.596;2024-02-23T07:15:59;3.50;;;0.95;;
21661;SDS011;10992;48.170;8.596;2024-02-23T07:18:26;4.78;;;1.15;;
21661;SDS011;10992;48.170;8.596;2024-02-23T07:20:54;5.05;;;1.40;;
21661;SDS011;10992;48.170;8.596;2024-02-23T07:23:21;5.60;;;1.55;;
21661;SDS011;10992;48.170;8.596;2024-02-23T07:25:49;4.15;;;1.17;;
21661;SDS011;10992;48.170;8.596;2024-02-23T07:28:17;4.65;;;1.08;;
21661;SDS011;10992;48.170;8.596;2024-02-23T07:30:46;4.80;;;1.35;;
21661;SDS011;10992;48.170;8.596;2024-02-23T07:33:13;1.98;;;1.00;;
21661;SDS011;10992;48.170;8.596;2024-02-23T07:35:40;5.63;;;1.70;;
21661;SDS011;10992;48.170;8.596;2024-02-23T07:38:07;3.35;;;1.38;;
21661;SDS011;10992;48.170;8.596;2024-02-23T07:40:34;2.33;;;1.10;;
21661;SDS011;10992;48.170;8.596;2024-02-23T07:43:01;5.68;;;1.10;;
21661;SDS011;10992;48.170;8.596;2024-02-23T07:45:27;3.70;;;1.13;;
21661;SDS011;10992;48.170;8.596;2024-02-23T07:47:54;3.92;;;1.42;;
21661;SDS011;10992;48.170;8.596;2024-02-23T07:50:21;4.10;;;1.02;;
21661;SDS011;10992;48.170;8.596;2024-02-23T07:52:48;2.97;;;1.33;;
21661;SDS011;10992;48.170;8.596;2024-02-23T07:55:15;6.35;;;1.88;;
21661;SDS011;10992;48.170;8.596;2024-02-23T07:57:43;5.18;;;1.20;;
21661;SDS011;10992;48.170;8.596;2024-02-23T08:00:10;6.47;;;1.60;;
21661;SDS011;10992;48.170;8.596;2024-02-23T08:02:37;5.88;;;1.52;;
21661;SDS011;10992;48.170;8.596;2024-02-23T08:05:04;6.45;;;1.33;;
21661;SDS011;10992;48.170;8.596;2024-02-23T08:07:33;2.95;;;1.05;;
21661;SDS011;10992;48.170;8.596;2024-02-23T08:10:00;10.50;;;1.38;;
21661;SDS011;10992;48.170;8.596;2024-02-23T08:12:26;7.72;;;1.95;;
21661;SDS011;10992;48.170;8.596;2024-02-23T08:14:54;4.18;;;1.73;;
21661;SDS011;10992;48.170;8.596;2024-02-23T08:17:21;8.73;;;2.25;;
21661;SDS011;10992;48.170;8.596;2024-02-23T08:19:48;6.93;;;1.42;;
21661;SDS011;10992;48.170;8.596;2024-02-23T08:22:15;8.05;;;1.60;;
21661;SDS011;10992;48.170;8.596;2024-02-23T08:24:42;4.00;;;1.70;;
21661;SDS011;10992;48.170;8.596;2024-02-23T08:27:09;4.25;;;1.40;;
21661;SDS011;10992;48.170;8.596;2024-02-23T08:29:37;6.38;;;1.42;;
21661;SDS011;10992;48.170;8.596;2024-02-23T08:32:07;6.88;;;1.38;;
21661;SDS011;10992;48.170;8.596;2024-02-23T08:34:35;5.05;;;1.40;;
21661;SDS011;10992;48.170;8.596;2024-02-23T08:37:02;4.47;;;1.60;;
21661;SDS011;10992;48.170;8.596;2024-02-23T08:39:29;3.88;;;1.38;;
21661;SDS011;10992;48.170;8.596;2024-02-23T08:41:56;3.90;;;1.67;;
21661;SDS011;10992;48.170;8.596;2024-02-23T08:44:23;8.00;;;1.88;;
21661;SDS011;10992;48.170;8.596;2024-02-23T08:46:50;3.83;;;1.17;;
21661;SDS011;10992;48.170;8.596;2024-02-23T08:49:17;2.42;;;1.20;;
21661;SDS011;10992;48.170;8.596;2024-02-23T08:51:44;5.90;;;1.90;;
21661;SDS011;10992;48.170;8.596;2024-02-23T08:54:11;2.90;;;1.20;;
21661;SDS011;10992;48.170;8.596;2024-02-23T08:56:38;4.78;;;1.88;;
21661;SDS011;10992;48.170;8.596;2024-02-23T08:59:06;7.10;;;1.73;;
21661;SDS011;10992;48.170;8.596;2024-02-23T09:01:33;5.45;;;1.50;;
21661;SDS011;10992;48.170;8.596;2024-02-23T09:04:00;5.97;;;1.20;;
21661;SDS011;10992;48.170;8.596;2024-02-23T09:06:26;2.17;;;0.95;;
21661;SDS011;10992;48.170;8.596;2024-02-23T09:08:54;5.32;;;1.38;;
21661;SDS011;10992;48.170;8.596;2024-02-23T09:11:20;4.38;;;1.05;;
21661;SDS011;10992;48.170;8.596;2024-02-23T09:13:48;6.40;;;1.45;;
21661;SDS011;10992;48.170;8.596;2024-02-23T09:16:15;8.32;;;2.55;;
21661;SDS011;10992;48.170;8.596;2024-02-23T09:18:42;6.32;;;1.48;;
21661;SDS011;10992;48.170;8.596;2024-02-23T09:21:09;4.00;;;1.23;;
21661;SDS011;10992;48.170;8.596;2024-02-23T09:23:36;6.28;;;1.50;;
21661;SDS011;10992;48.170;8.596;2024-02-23T09:26:08;2.88;;;1.13;;
21661;SDS011;10992;48.170;8.596;2024-02-23T09:28:36;5.22;;;1.20;;
21661;SDS011;10992;48.170;8.596;2024-02-23T09:31:03;3.33;;;1.30;;
21661;SDS011;10992;48.170;8.596;2024-02-23T09:33:31;4.97;;;1.20;;
21661;SDS011;10992;48.170;8.596;2024-02-23T09:35:57;6.85;;;1.10;;
21661;SDS011;10992;48.170;8.596;2024-02-23T09:38:25;5.93;;;1.88;;
21661;SDS011;10992;48.170;8.596;2024-02-23T09:40:52;7.03;;;1.55;;
21661;SDS011;10992;48.170;8.596;2024-02-23T09:43:20;3.80;;;1.40;;
21661;SDS011;10992;48.170;8.596;2024-02-23T09:45:51;5.47;;;2.55;;
21661;SDS011;10992;48.170;8.596;2024-02-23T09:48:18;5.25;;;1.63;;
21661;SDS011;10992;48.170;8.596;2024-02-23T09:50:47;9.07;;;2.45;;
21661;SDS011;10992;48.170;8.596;2024-02-23T09:53:15;4.63;;;1.23;;
21661;SDS011;10992;48.170;8.596;2024-02-23T09:55:44;8.02;;;1.90;;
21661;SDS011;10992;48.170;8.596;2024-02-23T09:58:12;5.45;;;1.50;;
21661;SDS011;10992;48.170;8.596;2024-02-23T10:00:40;3.17;;;2.08;;
21661;SDS011;10992;48.170;8.596;2024-02-23T10:03:07;5.80;;;1.10;;
21661;SDS011;10992;48.170;8.596;2024-02-23T10:05:34;3.90;;;1.00;;
21661;SDS011;10992;48.170;8.596;2024-02-23T10:08:07;6.50;;;1.55;;
21661;SDS011;10992;48.170;8.596;2024-02-23T10:10:35;3.17;;;1.48;;
21661;SDS011;10992;48.170;8.596;2024-02-23T10:13:04;3.00;;;1.10;;
21661;SDS011;10992;48.170;8.596;2024-02-23T10:15:31;5.43;;;1.73;;
21661;SDS011;10992;48.170;8.596;2024-02-23T10:17:58;4.45;;;1.55;;
21661;SDS011;10992;48.170;8.596;2024-02-23T10:20:26;6.93;;;1.30;;
21661;SDS011;10992;48.170;8.596;2024-02-23T10:22:52;5.82;;;1.45;;
21661;SDS011;10992;48.170;8.596;2024-02-23T10:25:20;9.57;;;1.45;;
21661;SDS011;10992;48.170;8.596;2024-02-23T10:27:47;5.97;;;1.50;;
21661;SDS011;10992;48.170;8.596;2024-02-23T10:30:14;5.55;;;1.27;;
21661;SDS011;10992;48.170;8.596;2024-02-23T10:32:42;5.30;;;1.50;;
21661;SDS011;10992;48.170;8.596;2024-02-23T10:35:10;7.05;;;1.55;;
21661;SDS011;10992;48.170;8.596;2024-02-23T10:37:41;5.47;;;1.63;;
21661;SDS011;10992;48.170;8.596;2024-02-23T10:40:11;5.85;;;1.55;;
21661;SDS011;10992;48.170;8.596;2024-02-23T10:42:40;7.30;;;1.38;;
21661;SDS011;10992;48.170;8.596;2024-02-23T10:45:16;8.55;;;1.35;;
21661;SDS011;10992;48.170;8.596;2024-02-23T10:47:44;6.78;;;1.60;;
21661;SDS011;10992;48.170;8.596;2024-02-23T10:50:11;4.93;;;1.30;;
21661;SDS011;10992;48.170;8.596;2024-02-23T10:52:44;3.58;;;1.83;;
21661;SDS011;10992;48.170;8.596;2024-02-23T10:55:11;6.70;;;2.00;;
21661;SDS011;10992;48.170;8.596;2024-02-23T10:57:40;4.95;;;1.52;;
21661;SDS011;10992;48.170;8.596;2024-02-23T11:00:07;6.90;;;1.88;;
21661;SDS011;10992;48.170;8.596;2024-02-23T11:02:39;4.97;;;1.27;;
21661;SDS011;10992;48.170;8.596;2024-02-23T11:05:10;6.30;;;1.70;;
21661;SDS011;10992;48.170;8.596;2024-02-23T11:07:39;7.70;;;1.55;;
21661;SDS011;10992;48.170;8.596;2024-02-23T11:10:06;4.78;;;1.40;;
21661;SDS011;10992;48.170;8.596;2024-02-23T11:12:35;7.25;;;2.17;;
21661;SDS011;10992;48.170;8.596;2024-02-23T11:15:03;3.97;;;1.05;;
21661;SDS011;10992;48.170;8.596;2024-02-23T11:17:30;4.65;;;1.40;;
21661;SDS011;10992;48.170;8.596;2024-02-23T11:20:02;3.47;;;1.30;;
21661;SDS011;10992;48.170;8.596;2024-02-23T11:22:31;5.07;;;1.50;;
21661;SDS011;10992;48.170;8.596;2024-02-23T11:25:05;9.82;;;2.13;;
21661;SDS011;10992;48.170;8.596;2024-02-23T11:27:37;4.43;;;1.27;;
21661;SDS011;10992;48.170;8.596;2024-02-23T11:30:07;8.35;;;2.70;;
21661;SDS011;10992;48.170;8.596;2024-02-23T11:32:37;6.55;;;1.60;;
21661;SDS011;10992;48.170;8.596;2024-02-23T11:35:12;4.15;;;1.85;;
21661;SDS011;10992;48.170;8.596;2024-02-23T11:37:58;9.07;;;3.13;;
21661;SDS011;10992;48.170;8.596;2024-02-23T11:40:30;8.73;;;1.80;;
21661;SDS011;10992;48.170;8.596;2024-02-23T11:42:58;7.28;;;2.72;;
21661;SDS011;10992;48.170;8.596;2024-02-23T11:45:30;6.03;;;1.52;;
21661;SDS011;10992;48.170;8.596;2024-02-23T11:47:58;7.20;;;2.10;;
21661;SDS011;10992;48.170;8.596;2024-02-23T11:50:25;4.43;;;2.40;;
21661;SDS011;10992;48.170;8.596;2024-02-23T11:52:52;5.43;;;1.83;;
21661;SDS011;10992;48.170;8.596;2024-02-23T11:55:20;3.00;;;1.42;;
21661;SDS011;10992;48.170;8.596;2024-02-23T11:57:50;4.35;;;1.55;;
21661;SDS011;10992;48.170;8.596;2024-02-23T12:00:31;5.38;;;1.75;;
21661;SDS011;10992;48.170;8.596;2024-02-23T12:02:58;7.10;;;1.48;;
21661;SDS011;10992;48.170;8.596;2024-02-23T12:05:25;10.48;;;1.75;;
21661;SDS011;10992;48.170;8.596;2024-02-23T12:07:53;5.68;;;1.23;;
21661;SDS011;10992;48.170;8.596;2024-02-23T12:10:21;7.10;;;1.55;;
21661;SDS011;10992;48.170;8.596;2024-02-23T12:12:48;9.63;;;2.65;;
21661;SDS011;10992;48.170;8.596;2024-02-23T12:15:15;7.47;;;2.30;;
21661;SDS011;10992;48.170;8.596;2024-02-23T12:17:49;8.00;;;1.40;;
21661;SDS011;10992;48.170;8.596;2024-02-23T12:20:16;3.05;;;1.50;;
21661;SDS011;10992;48.170;8.596;2024-02-23T12:22:44;6.45;;;1.55;;
21661;SDS011;10992;48.170;8.596;2024-02-23T12:25:11;3.90;;;1.50;;
21661;SDS011;10992;48.170;8.596;2024-02-23T12:27:39;4.95;;;1.40;;
21661;SDS011;10992;48.170;8.596;2024-02-23T12:30:12;6.25;;;1.65;;
21661;SDS011;10992;48.170;8.596;2024-02-23T12:32:41;11.43;;;1.77;;
21661;SDS011;10992;48.170;8.596;2024-02-23T12:35:10;7.03;;;1.73;;
21661;SDS011;10992;48.170;8.596;2024-02-23T12:37:38;6.35;;;1.80;;
21661;SDS011;10992;48.170;8.596;2024-02-23T12:40:09;6.07;;;1.70;;
21661;SDS011;10992;48.170;8.596;2024-02-23T12:42:36;7.30;;;1.38;;
21661;SDS011;10992;48.170;8.596;2024-02-23T12:45:03;4.78;;;1.23;;
21661;SDS011;10992;48.170;8.596;2024-02-23T12:47:30;8.98;;;1.73;;
21661;SDS011;10992;48.170;8.596;2024-02-23T12:49:57;4.20;;;1.58;;
21661;SDS011;10992;48.170;8.596;2024-02-23T12:52:24;4.40;;;1.15;;
21661;SDS011;10992;48.170;8.596;2024-02-23T12:54:51;5.88;;;1.98;;
21661;SDS011;10992;48.170;8.596;2024-02-23T12:57:18;3.63;;;1.15;;
21661;SDS011;10992;48.170;8.596;2024-02-23T12:59:45;6.93;;;1.23;;
21661;SDS011;10992;48.170;8.596;2024-02-23T13:02:12;7.60;;;1.50;;
21661;SDS011;10992;48.170;8.596;2024-02-23T13:04:39;7.68;;;1.95;;
21661;SDS011;10992;48.170;8.596;2024-02-23T13:07:06;4.88;;;1.05;;
21661;SDS011;10992;48.170;8.596;2024-02-23T13:09:34;5.35;;;1.25;;
21661;SDS011;10992;48.170;8.596;2024-02-23T13:12:00;6.78;;;1.20;;
21661;SDS011;10992;48.170;8.596;2024-02-23T13:14:27;9.43;;;1.40;;
21661;SDS011;10992;48.170;8.596;2024-02-23T13:16:54;8.15;;;1.75;;
21661;SDS011;10992;48.170;8.596;2024-02-23T13:19:21;3.95;;;1.30;;
21661;SDS011;10992;48.170;8.596;2024-02-23T13:21:48;4.80;;;1.00;;
21661;SDS011;10992;48.170;8.596;2024-02-23T13:24:15;4.05;;;1.55;;
21661;SDS011;10992;48.170;8.596;2024-02-23T13:26:42;3.20;;;0.90;;
21661;SDS011;10992;48.170;8.596;2024-02-23T13:29:09;3.35;;;1.08;;
21661;SDS011;10992;48.170;8.596;2024-02-23T13:31:36;2.15;;;1.13;;
21661;SDS011;10992;48.170;8.596;2024-02-23T13:34:06;5.60;;;1.38;;
21661;SDS011;10992;48.170;8.596;2024-02-23T13:36:34;6.47;;;1.42;;
21661;SDS011;10992;48.170;8.596;2024-02-23T13:39:00;5.13;;;1.30;;
21661;SDS011;10992;48.170;8.596;2024-02-23T13:41:27;4.30;;;1.20;;
21661;SDS011;10992;48.170;8.596;2024-02-23T13:43:54;7.35;;;1.48;;
21661;SDS011;10992;48.170;8.596;2024-02-23T13:46:21;3.08;;;1.08;;
21661;SDS011;10992;48.170;8.596;2024-02-23T13:49:01;5.18;;;1.50;;
21661;SDS011;10992;48.170;8.596;2024-02-23T13:51:29;6.45;;;1.63;;
21661;SDS011;10992;48.170;8.596;2024-02-23T13:53:56;7.43;;;1.30;;
21661;SDS011;10992;48.170;8.596;2024-02-23T13:56:23;4.97;;;0.88;;
21661;SDS011;10992;48.170;8.596;2024-02-23T13:58:53;5.00;;;1.20;;
21661;SDS011;10992;48.170;8.596;2024-02-23T14:01:20;2.65;;;1.02;;
21661;SDS011;10992;48.170;8.596;2024-02-23T14:03:47;2.80;;;1.10;;
21661;SDS011;10992;48.170;8.596;2024-02-23T14:06:14;5.03;;;1.05;;
21661;SDS011;10992;48.170;8.596;2024-02-23T14:08:41;3.60;;;1.20;;
21661;SDS011;10992;48.170;8.596;2024-02-23T14:11:09;7.90;;;2.15;;
21661;SDS011;10992;48.170;8.596;2024-02-23T14:13:36;7.18;;;1.92;;
21661;SDS011;10992;48.170;8.596;2024-02-23T14:16:04;5.40;;;1.10;;
21661;SDS011;10992;48.170;8.596;2024-02-23T14:18:31;3.25;;;1.10;;
21661;SDS011;10992;48.170;8.596;2024-02-23T14:21:04;6.32;;;1.35;;
21661;SDS011;10992;48.170;8.596;2024-02-23T14:23:30;3.05;;;1.10;;
21661;SDS011;10992;48.170;8.596;2024-02-23T14:25:57;3.97;;;1.00;;
21661;SDS011;10992;48.170;8.596;2024-02-23T14:28:24;3.85;;;1.10;;
21661;SDS011;10992;48.170;8.596;2024-02-23T14:30:51;6.38;;;1.40;;
21661;SDS011;10992;48.170;8.596;2024-02-23T14:33:19;3.78;;;0.93;;
21661;SDS011;10992;48.170;8.596;2024-02-23T14:35:47;4.80;;;1.08;;
21661;SDS011;10992;48.170;8.596;2024-02-23T14:38:15;5.63;;;1.05;;
21661;SDS011;10992;48.170;8.596;2024-02-23T14:40:43;3.30;;;0.93;;
21661;SDS011;10992;48.170;8.596;2024-02-23T14:43:10;4.95;;;1.30;;
21661;SDS011;10992;48.170;8.596;2024-02-23T14:45:37;6.40;;;1.42;;
21661;SDS011;10992;48.170;8.596;2024-02-23T14:48:04;7.70;;;1.10;;
21661;SDS011;10992;48.170;8.596;2024-02-23T14:50:32;4.15;;;0.88;;